createdAt,value
2018-12-20T00:00:55.729Z,28.40
2018-12-20T00:05:57.714Z,26.63
2018-12-20T00:10:59.696Z,36.57
2018-12-20T00:21:30.208Z,22.13
2018-12-20T00:26:32.686Z,30.37
2018-12-20T00:31:35.892Z,28.43
2018-12-20T00:36:37.894Z,26.10
2018-12-20T00:41:51.182Z,27.37
2018-12-20T00:46:53.219Z,30.70
2018-12-20T00:51:58.735Z,26.43
2018-12-20T00:57:01.194Z,25.23
2018-12-20T01:02:03.981Z,28.63
2018-12-20T01:07:05.746Z,26.30
2018-12-20T01:12:08.451Z,26.37
2018-12-20T01:17:10.449Z,28.00
2018-12-20T01:22:12.178Z,29.10
2018-12-20T01:27:14.204Z,27.40
2018-12-20T01:32:16.310Z,23.90
2018-12-20T01:37:18.371Z,23.03
2018-12-20T01:42:20.066Z,28.97
2018-12-20T01:47:22.358Z,29.40
2018-12-20T01:52:39.196Z,24.80
2018-12-20T01:57:41.282Z,23.97
2018-12-20T02:02:43.562Z,22.03
2018-12-20T02:07:45.627Z,25.60
2018-12-20T02:12:47.928Z,19.47
2018-12-20T02:17:49.851Z,26.80
2018-12-20T02:22:51.797Z,22.00
2018-12-20T02:27:53.992Z,37.10
2018-12-20T02:32:56.172Z,29.23
2018-12-20T02:37:58.134Z,28.10
2018-12-20T02:43:00.206Z,27.73
2018-12-20T02:48:02.015Z,23.33
2018-12-20T02:53:04.191Z,23.37
2018-12-20T02:58:05.898Z,31.10
2018-12-20T03:03:08.015Z,25.73
2018-12-20T03:08:09.828Z,24.00
2018-12-20T03:13:12.313Z,37.97
2018-12-20T03:18:14.608Z,24.73
2018-12-20T03:23:16.490Z,31.60
2018-12-20T03:28:18.367Z,33.20
2018-12-20T03:33:20.236Z,19.40
2018-12-20T03:38:22.663Z,26.90
2018-12-20T03:43:25.606Z,34.33
2018-12-20T03:48:27.723Z,30.50
2018-12-20T03:53:29.433Z,25.43
2018-12-20T03:58:31.369Z,30.63
2018-12-20T04:03:33.790Z,23.07
2018-12-20T04:08:35.682Z,30.27
2018-12-20T04:13:38.068Z,29.73
2018-12-20T04:18:40.221Z,39.03
2018-12-20T04:23:42.329Z,28.10
2018-12-20T04:28:44.638Z,25.00
2018-12-20T04:33:46.477Z,23.17
2018-12-20T04:38:48.357Z,27.20
2018-12-20T04:43:50.642Z,27.43
2018-12-20T04:48:52.533Z,24.63
2018-12-20T04:53:54.600Z,27.07
2018-12-20T04:58:56.688Z,30.43
2018-12-20T05:03:59.022Z,24.23
2018-12-20T05:09:00.859Z,33.80
2018-12-20T05:14:10.941Z,31.23
2018-12-20T05:19:13.779Z,42.80
2018-12-20T05:24:15.973Z,27.60
2018-12-20T05:29:17.809Z,35.20
2018-12-20T05:34:19.610Z,28.57
2018-12-20T05:39:21.922Z,24.07
2018-12-20T05:44:24.147Z,23.37
2018-12-20T05:49:26.325Z,25.10
2018-12-20T05:54:28.164Z,24.40
2018-12-20T05:59:30.182Z,38.13
2018-12-20T06:04:32.641Z,27.80
2018-12-20T06:09:34.640Z,24.43
2018-12-20T06:14:37.458Z,24.37
2018-12-20T06:19:39.442Z,28.77
2018-12-20T06:24:41.118Z,27.47
2018-12-20T06:29:43.195Z,29.60
2018-12-20T06:34:44.875Z,40.53
2018-12-20T06:39:46.541Z,30.20
2018-12-20T06:44:48.218Z,28.10
2018-12-20T06:49:50.095Z,23.97
2018-12-20T06:54:52.374Z,24.90
2018-12-20T06:59:54.270Z,29.40
2018-12-20T07:04:56.232Z,25.40
2018-12-20T07:09:58.020Z,22.30
2018-12-20T07:14:59.732Z,29.43
2018-12-20T07:20:01.574Z,23.10
2018-12-20T07:25:04.463Z,31.93
2018-12-20T07:30:09.222Z,29.93
2018-12-20T07:35:11.306Z,32.67
2018-12-20T07:40:15.508Z,39.43
2018-12-20T07:45:17.507Z,41.53
2018-12-20T07:50:19.192Z,29.43
2018-12-20T07:55:20.867Z,33.47
2018-12-20T08:00:22.950Z,36.97
2018-12-20T08:05:31.650Z,29.43
2018-12-20T08:10:42.079Z,25.50
2018-12-20T08:15:44.663Z,32.60
2018-12-20T08:20:46.336Z,27.30
2018-12-20T08:25:48.122Z,33.27
2018-12-20T08:30:50.010Z,30.00
2018-12-20T08:35:52.396Z,33.30
2018-12-20T08:40:54.176Z,33.93
2018-12-20T08:46:03.630Z,34.57
2018-12-20T08:51:11.089Z,33.83
2018-12-20T08:56:13.030Z,54.43
2018-12-20T09:01:14.807Z,38.70
2018-12-20T09:06:16.582Z,28.93
2018-12-20T09:11:18.771Z,36.90
2018-12-20T09:16:20.696Z,34.23
2018-12-20T09:21:22.419Z,37.80
2018-12-20T09:26:24.387Z,51.03
2018-12-20T09:31:26.280Z,38.67
2018-12-20T09:36:28.334Z,23.90
2018-12-20T09:41:30.045Z,38.70
2018-12-20T09:46:31.724Z,42.83
2018-12-20T09:51:33.399Z,43.70
2018-12-20T09:56:35.280Z,40.23
2018-12-20T10:01:37.155Z,39.47
2018-12-20T10:06:43.949Z,35.13
2018-12-20T10:11:45.608Z,38.80
2018-12-20T10:16:47.700Z,52.17
2018-12-20T10:21:49.379Z,36.27
2018-12-20T10:26:51.267Z,48.63
2018-12-20T10:31:53.133Z,43.87
2018-12-20T10:36:54.774Z,52.23
2018-12-20T10:41:56.646Z,49.23
2018-12-20T10:47:00.822Z,43.60
2018-12-20T10:52:02.704Z,33.53
2018-12-20T10:57:04.377Z,37.90
2018-12-20T11:02:12.431Z,38.50
2018-12-20T11:07:20.622Z,36.50
2018-12-20T11:12:27.208Z,37.60
2018-12-20T11:17:37.130Z,40.87
2018-12-20T11:22:33.823Z,36.57
2018-12-20T11:27:35.501Z,32.67
2018-12-20T11:32:37.786Z,37.20
2018-12-20T11:37:39.468Z,36.17
2018-12-20T11:42:41.332Z,36.00
2018-12-20T11:47:46.114Z,34.23
2018-12-20T11:52:47.982Z,57.80
2018-12-20T11:57:49.859Z,47.00
2018-12-20T12:02:51.536Z,36.73
2018-12-20T12:07:53.311Z,32.90
2018-12-20T12:12:54.973Z,33.87
2018-12-20T12:17:56.657Z,30.77
2018-12-20T12:22:58.934Z,46.87
2018-12-20T12:28:00.827Z,50.33
2018-12-20T12:33:02.907Z,44.00
2018-12-20T12:38:04.988Z,57.37
2018-12-20T12:43:06.622Z,46.33
2018-12-20T12:48:08.336Z,38.43
2018-12-20T12:53:10.419Z,37.60
2018-12-20T12:58:12.094Z,40.93
2018-12-20T13:03:14.685Z,40.10
2018-12-20T13:08:16.356Z,62.90
2018-12-20T13:13:18.032Z,43.93
2018-12-20T13:18:20.099Z,50.70
2018-12-20T13:23:23.230Z,47.80
2018-12-20T13:28:25.296Z,44.40
2018-12-20T13:33:26.950Z,66.37
2018-12-20T13:38:28.567Z,40.73
2018-12-20T13:43:30.743Z,36.40
2018-12-20T13:48:32.430Z,38.60
2018-12-20T13:53:34.074Z,46.40
2018-12-20T13:58:37.678Z,54.60
2018-12-20T14:03:39.947Z,42.23
2018-12-20T14:08:42.184Z,48.13
2018-12-20T14:13:44.062Z,47.17
2018-12-20T14:18:45.794Z,56.50
2018-12-20T14:23:47.613Z,46.10
2018-12-20T14:28:49.272Z,52.00
2018-12-20T14:33:51.370Z,41.77
2018-12-20T14:38:53.315Z,57.93
2018-12-20T14:49:05.397Z,39.67
2018-12-20T14:54:07.482Z,41.20
2018-12-20T14:59:10.889Z,41.67
2018-12-20T15:04:12.883Z,37.43
2018-12-20T15:09:14.850Z,44.40
2018-12-20T15:14:17.033Z,49.10
2018-12-20T15:19:19.215Z,56.27
2018-12-20T15:24:21.146Z,48.07
2018-12-20T15:29:22.832Z,54.60
2018-12-20T15:34:24.649Z,45.03
2018-12-20T15:39:26.610Z,32.77
2018-12-20T15:44:28.306Z,41.70
2018-12-20T15:49:30.181Z,47.83
2018-12-20T15:54:31.960Z,45.10
2018-12-20T15:59:33.833Z,58.60
2018-12-20T16:04:36.324Z,43.87
2018-12-20T16:09:38.774Z,44.67
2018-12-20T16:14:40.427Z,54.47
2018-12-20T16:19:42.774Z,44.20
2018-12-20T16:24:44.859Z,47.50
2018-12-20T16:29:53.909Z,44.80
2018-12-20T16:34:56.190Z,42.93
2018-12-20T16:39:58.170Z,59.20
2018-12-20T16:44:59.816Z,44.03
2018-12-20T16:50:02.237Z,40.73
2018-12-20T16:55:06.162Z,48.00
2018-12-20T17:00:12.752Z,46.27
2018-12-20T17:05:14.835Z,49.07
2018-12-20T17:10:16.778Z,46.23
2018-12-20T17:15:18.434Z,48.80
2018-12-20T17:20:20.470Z,56.13
2018-12-20T17:25:22.448Z,52.50
2018-12-20T17:30:24.155Z,43.50
2018-12-20T17:35:25.852Z,56.73
2018-12-20T17:40:28.858Z,43.80
2018-12-20T17:45:30.871Z,42.10
2018-12-20T17:50:32.547Z,44.77
2018-12-20T17:55:34.454Z,54.53
2018-12-20T18:00:36.310Z,51.07
2018-12-20T18:05:38.188Z,44.40
2018-12-20T18:10:43.644Z,47.90
2018-12-20T18:15:45.838Z,67.70
2018-12-20T18:20:48.167Z,40.93
2018-12-20T18:25:50.205Z,53.63
2018-12-20T18:30:52.087Z,45.40
2018-12-20T18:35:54.173Z,55.50
2018-12-20T18:40:55.899Z,62.87
2018-12-20T18:45:58.344Z,53.50
2018-12-20T18:51:00.025Z,47.43
2018-12-20T18:56:01.898Z,42.40
2018-12-20T19:01:03.781Z,53.73
2018-12-20T19:06:07.061Z,38.20
2018-12-20T19:11:09.175Z,41.33
2018-12-20T19:16:11.460Z,59.90
2018-12-20T19:21:13.542Z,51.70
2018-12-20T19:26:15.212Z,54.80
2018-12-20T19:31:17.299Z,39.80
2018-12-20T19:36:19.586Z,45.27
2018-12-20T19:41:31.078Z,45.37
2018-12-20T19:46:33.586Z,39.50
2018-12-20T19:51:36.434Z,64.00
2018-12-20T19:56:38.085Z,52.30
2018-12-20T20:01:39.950Z,46.73
2018-12-20T20:06:41.890Z,44.90
2018-12-20T20:11:43.928Z,47.67
2018-12-20T20:16:50.767Z,49.53
2018-12-20T20:21:50.525Z,44.70
2018-12-20T20:26:52.607Z,50.93
2018-12-20T20:31:55.511Z,48.67
2018-12-20T20:36:58.003Z,52.93
2018-12-20T20:41:59.905Z,44.43
2018-12-20T20:47:02.372Z,43.30
2018-12-20T20:52:04.455Z,54.17
2018-12-20T20:57:06.536Z,49.13
2018-12-20T21:02:08.620Z,60.67
2018-12-20T21:07:10.487Z,56.57
2018-12-20T21:12:12.170Z,54.13
2018-12-20T21:17:14.458Z,55.63
2018-12-20T21:22:16.318Z,48.80
2018-12-20T21:27:20.670Z,43.87
2018-12-20T21:32:22.327Z,47.83
2018-12-20T21:37:24.227Z,44.77
2018-12-20T21:42:26.311Z,48.33
2018-12-20T21:47:28.400Z,47.17
2018-12-20T21:52:30.079Z,40.23
2018-12-20T21:57:33.794Z,40.90
2018-12-20T22:02:35.879Z,45.30
2018-12-20T22:07:37.961Z,51.57
2018-12-20T22:12:40.040Z,45.23
2018-12-20T22:17:42.327Z,48.20
2018-12-20T22:22:45.037Z,43.50
2018-12-20T22:27:46.916Z,49.43
2018-12-20T22:32:48.799Z,55.40
2018-12-20T22:37:50.674Z,48.43
2018-12-20T22:42:52.348Z,52.50
2018-12-20T22:47:54.638Z,43.10
2018-12-20T22:52:56.516Z,45.40
2018-12-20T22:57:58.805Z,52.47
2018-12-20T23:03:00.675Z,50.63
2018-12-20T23:08:02.358Z,41.00
2018-12-20T23:13:04.029Z,42.87
2018-12-20T23:18:05.907Z,55.87
2018-12-20T23:23:07.766Z,49.40
2018-12-20T23:28:09.453Z,45.23
2018-12-20T23:33:11.346Z,45.07
2018-12-20T23:38:13.417Z,49.20
2018-12-20T23:43:15.890Z,51.23
2018-12-20T23:48:17.789Z,42.13
2018-12-20T23:53:19.871Z,43.57
2018-12-20T23:58:21.748Z,47.30
